TAF and METAR

METAR for Sleipner Oil Platform

ENSL 020320Z AUTO 19030KT 9999NDV BKN023/// 08/04 Q1016 W08/S4
Report created 2. des 04:20
report generated by an automatic observation system. wind 30 knots from S (190°) visibility > 10km broken clouds (~75% cover) at 2300 feet Temperature 8° with dewpoint at 4° (Humidity 75.84%) Pressure 1016 hPa
No TAF available for Sleipner Oil Platform
Sleipner Oil Platform in Norway at 50m

Latest 5 airports